createdAt,value
2022-12-29T00:05:49.397Z,51.25
2022-12-29T00:25:49.351Z,51.28
2022-12-29T00:45:49.305Z,51.29
2022-12-29T01:05:49.349Z,51.32
2022-12-29T01:25:48.767Z,51.35
2022-12-29T02:05:49.250Z,51.38
2022-12-29T02:25:49.116Z,51.41
2022-12-29T02:45:49.239Z,51.43
2022-12-29T03:05:49.219Z,51.44
2022-12-29T03:25:49.171Z,51.43
2022-12-29T03:45:49.234Z,51.45
2022-12-29T04:05:49.156Z,51.44
2022-12-29T04:45:49.094Z,51.46
2022-12-29T05:25:49.095Z,51.41
2022-12-29T05:45:49.048Z,51.38
2022-12-29T06:05:49.036Z,51.36
2022-12-29T06:25:49.030Z,51.31
2022-12-29T06:45:49.080Z,51.29
2022-12-29T07:05:49.027Z,51.27
2022-12-29T07:25:48.963Z,51.27
2022-12-29T07:45:49.007Z,51.25
2022-12-29T08:25:48.918Z,51.24
2022-12-29T08:45:48.138Z,51.18
2022-12-29T09:25:48.895Z,51.17
2022-12-29T09:45:48.324Z,51.16
2022-12-29T10:05:48.828Z,51.16
2022-12-29T10:25:48.690Z,51.14
2022-12-29T11:05:48.795Z,51.13
2022-12-29T11:25:48.746Z,51.12
2022-12-29T11:45:48.620Z,51.12
2022-12-29T12:05:48.713Z,51.1
2022-12-29T12:25:48.741Z,51.1
2022-12-29T12:45:48.688Z,51.09
2022-12-29T13:05:48.143Z,51.08
2022-12-29T13:25:48.645Z,51.06
2022-12-29T13:45:47.857Z,50.93
2022-12-29T14:05:48.480Z,50.92
2022-12-29T14:25:48.580Z,50.91
2022-12-29T14:45:48.570Z,50.9
2022-12-29T15:05:47.789Z,50.89
2022-12-29T15:25:48.598Z,50.89
2022-12-29T15:45:48.565Z,50.89
2022-12-29T16:05:48.502Z,50.9
2022-12-29T16:25:48.488Z,50.88
2022-12-29T16:45:48.501Z,50.88
2022-12-29T17:05:51.421Z,50.87
2022-12-29T17:25:48.432Z,50.86
2022-12-29T17:45:48.501Z,50.85
2022-12-29T18:25:48.416Z,50.86
2022-12-29T18:45:48.380Z,50.88
2022-12-29T19:45:47.882Z,50.93
2022-12-29T20:05:48.344Z,50.96
2022-12-29T20:45:48.400Z,51.02
2022-12-29T21:05:48.311Z,51.06
2022-12-29T21:25:48.288Z,51.09
2022-12-29T21:45:47.787Z,51.11
2022-12-29T22:05:48.262Z,51.14
2022-12-29T22:25:48.255Z,51.14
2022-12-29T22:45:48.236Z,51.15
2022-12-29T23:05:48.231Z,51.16
2022-12-29T23:25:48.231Z,51.16
2022-12-29T23:45:50.927Z,51.15
